Land O Lakes, Florida
Current Conditions -  °F | °C
As of 7:21 AM on Wednesday 26 Nov 2014 (Local Time) from KBKV Reporting Station
Light Rain Light Rain  
Wind Chill: 52°   Ceiling: 900
Heat Index: 52°   Visibility: 10mi
Dew Point: 50°   Wind: 9mph
Humidity: 93%   Direction: 310°NW
Pressure: 30.09"   Gusts: NA
Location:  28.28°N, 82.45°W
Report Text: KBKV 261221Z 31008KT 10SM -RA OVC009 11/10 A3009 RMK AO2 CIG 006V011 P0001 T01110100
Loading
Personal Weather Stations






























Interactive Weather Map New forecast layout! Learn more

10-Day Weather Forecast

Advertisements
Track Severe Weather on mobile